Time;durP1;ratioP1;P1;durP2;ratioP2;P2;SDS_P1;SDS_P2;PMS_P1;PMS_P2;Temp;Humidity;BMP_temperature;BMP_pressure;BME280_temperature;BME280_humidity;BME280_pressure;Samples;Min_cycle;Max_cycle;Signal;HPM_P1;HPM_P2
2023/09/30 00:01:58;;;;;;;13.82;5.68;;;16.10;98.70;;;;;;4250238;27;20037;-57
2023/09/30 00:04:05;;;;;;;15.48;5.80;;;16.10;98.90;;;;;;4250628;27;20069;-57
2023/09/30 00:06:07;;;;;;;17.48;6.03;;;16.10;99.10;;;;;;4250573;27;20085;-59
2023/09/30 00:08:09;;;;;;;11.32;5.25;;;16.10;99.00;;;;;;4246318;27;20047;-59
2023/09/30 00:10:14;;;;;;;22.70;7.45;;;16.10;99.10;;;;;;4250449;27;20043;-59
2023/09/30 00:12:16;;;;;;;18.23;6.57;;;16.10;98.90;;;;;;4249666;27;20520;-59
2023/09/30 00:14:18;;;;;;;15.32;6.30;;;16.00;98.90;;;;;;4249997;27;20055;-56
2023/09/30 00:16:20;;;;;;;18.25;7.43;;;16.10;98.90;;;;;;4249797;27;20477;-56
2023/09/30 00:18:23;;;;;;;19.23;7.00;;;16.00;98.80;;;;;;4249372;27;20046;-56
2023/09/30 00:20:25;;;;;;;18.55;8.00;;;16.00;98.80;;;;;;4250715;27;20066;-56
2023/09/30 00:22:28;;;;;;;19.40;7.93;;;16.00;98.90;;;;;;4250616;27;20053;-56
2023/09/30 00:24:30;;;;;;;20.08;7.90;;;16.00;98.90;;;;;;4251254;27;20043;-56
2023/09/30 00:26:34;;;;;;;19.85;8.15;;;15.90;98.90;;;;;;4251582;27;20055;-56
2023/09/30 00:28:36;;;;;;;19.88;9.23;;;16.00;99.40;;;;;;4232388;28;20050;-58
2023/09/30 00:30:38;;;;;;;17.52;7.93;;;15.90;98.90;;;;;;4232427;28;20407;-57
2023/09/30 00:32:41;;;;;;;18.10;8.02;;;15.90;99.10;;;;;;4249978;27;20051;-56
2023/09/30 00:34:43;;;;;;;21.05;8.77;;;15.90;99.00;;;;;;4231787;28;20100;-56
2023/09/30 00:36:45;;;;;;;19.92;8.55;;;15.90;99.10;;;;;;4233109;28;20044;-56
2023/09/30 00:38:47;;;;;;;18.83;7.85;;;15.80;99.00;;;;;;4248057;27;20095;-56
2023/09/30 00:40:50;;;;;;;23.77;9.35;;;15.80;99.20;;;;;;4249396;27;20050;-55
2023/09/30 00:42:53;;;;;;;21.63;8.32;;;15.80;99.10;;;;;;4249554;27;20112;-56
2023/09/30 00:44:55;;;;;;;18.92;8.13;;;15.80;99.20;;;;;;4249534;27;20043;-56
2023/09/30 00:46:58;;;;;;;21.88;7.65;;;15.80;99.30;;;;;;4249877;27;20051;-55
2023/09/30 00:49:02;;;;;;;18.05;8.05;;;15.80;99.30;;;;;;4249482;27;20074;-56
2023/09/30 00:51:06;;;;;;;16.35;7.80;;;15.70;99.40;;;;;;4249442;27;20055;-56
2023/09/30 00:53:10;;;;;;;18.00;8.30;;;15.70;99.30;;;;;;4249687;27;20638;-56
2023/09/30 00:55:12;;;;;;;17.55;7.95;;;15.70;99.10;;;;;;4238233;27;20092;-56
2023/09/30 00:57:15;;;;;;;18.63;8.18;;;15.70;99.10;;;;;;4249641;27;20047;-56
2023/09/30 00:59:19;;;;;;;16.15;8.00;;;15.70;99.30;;;;;;4249584;27;20047;-56
2023/09/30 01:01:21;;;;;;;20.00;8.27;;;15.70;99.30;;;;;;4249886;27;20049;-55
2023/09/30 01:03:24;;;;;;;18.17;8.75;;;15.60;99.30;;;;;;4249609;27;20043;-56
2023/09/30 01:05:26;;;;;;;19.73;8.00;;;15.70;99.50;;;;;;4249495;27;20043;-57
2023/09/30 01:07:28;;;;;;;19.42;8.05;;;15.70;99.50;;;;;;4251854;27;20039;-63
2023/09/30 01:09:30;;;;;;;16.05;7.50;;;15.70;99.40;;;;;;4250822;27;20070;-56
2023/09/30 01:11:33;;;;;;;15.07;7.88;;;15.70;99.40;;;;;;4249881;27;20043;-56
2023/09/30 01:13:36;;;;;;;13.07;6.35;;;15.70;99.40;;;;;;4249347;27;20046;-58
2023/09/30 01:15:40;;;;;;;21.80;7.20;;;15.70;99.50;;;;;;4249545;27;20401;-56
2023/09/30 01:17:42;;;;;;;13.27;6.45;;;15.80;99.40;;;;;;4249335;27;20118;-55
2023/09/30 01:19:44;;;;;;;15.55;7.50;;;15.70;99.40;;;;;;4249099;27;20043;-58
2023/09/30 01:21:48;;;;;;;17.35;7.57;;;15.70;99.60;;;;;;4249365;27;20499;-56
2023/09/30 01:23:50;;;;;;;16.13;6.88;;;15.70;99.50;;;;;;4248716;27;20051;-56
2023/09/30 01:25:52;;;;;;;13.77;6.80;;;15.70;99.60;;;;;;4249087;27;20471;-55
2023/09/30 01:27:54;;;;;;;17.77;6.78;;;15.70;99.50;;;;;;4249168;27;20043;-56
2023/09/30 01:29:58;;;;;;;19.83;6.80;;;15.70;99.50;;;;;;4249002;27;20077;-55
2023/09/30 01:32:01;;;;;;;14.77;6.53;;;15.60;99.80;;;;;;4249314;27;20043;-57
2023/09/30 01:34:03;;;;;;;21.38;7.32;;;15.60;99.80;;;;;;4248846;27;20039;-56
2023/09/30 01:36:06;;;;;;;16.20;6.47;;;15.50;99.80;;;;;;4248841;27;20043;-56
2023/09/30 01:38:10;;;;;;;15.23;6.82;;;15.50;99.90;;;;;;4248725;27;20042;-57
2023/09/30 01:40:12;;;;;;;17.08;6.18;;;15.50;99.90;;;;;;4248675;27;20039;-56
2023/09/30 01:42:14;;;;;;;17.15;6.90;;;15.40;99.90;;;;;;4248941;27;20047;-56
2023/09/30 01:44:17;;;;;;;16.65;6.10;;;15.40;99.90;;;;;;4249018;27;20096;-56
2023/09/30 01:46:19;;;;;;;17.08;6.82;;;15.40;99.90;;;;;;4248148;27;20073;-56
2023/09/30 01:48:21;;;;;;;18.25;6.88;;;15.30;99.90;;;;;;4249125;27;20076;-56
2023/09/30 01:50:23;;;;;;;12.23;5.20;;;15.30;99.90;;;;;;4248329;27;20051;-56
2023/09/30 01:52:26;;;;;;;18.17;6.25;;;15.30;99.90;;;;;;4248768;27;20035;-56
2023/09/30 01:54:29;;;;;;;16.98;6.15;;;15.30;99.90;;;;;;4248745;27;20043;-56
2023/09/30 01:56:32;;;;;;;15.18;6.07;;;15.30;99.90;;;;;;4248690;27;20126;-56
2023/09/30 01:58:34;;;;;;;17.33;6.72;;;15.20;99.90;;;;;;4248865;27;20075;-57
2023/09/30 02:00:37;;;;;;;14.10;5.97;;;15.20;99.90;;;;;;4230583;28;20043;-56
2023/09/30 02:02:39;;;;;;;15.52;6.38;;;15.20;99.90;;;;;;4247774;27;20040;-57
2023/09/30 02:04:41;;;;;;;15.00;6.05;;;15.30;99.90;;;;;;4248400;27;20043;-56
2023/09/30 02:06:43;;;;;;;19.23;6.57;;;15.20;99.90;;;;;;4248317;27;20051;-56
2023/09/30 02:08:46;;;;;;;19.35;7.07;;;15.20;99.90;;;;;;4249186;27;20047;-56
2023/09/30 02:10:51;;;;;;;11.77;5.38;;;15.20;99.90;;;;;;4249845;27;20083;-57
2023/09/30 02:12:52;;;;;;;;;;;15.20;99.90;;;;;;4250939;27;20543;-56
2023/09/30 02:14:55;;;;;;;16.95;6.28;;;15.20;99.90;;;;;;4249742;27;20348;-56
2023/09/30 02:16:57;;;;;;;15.15;5.90;;;15.20;99.90;;;;;;4243324;27;20040;-56
2023/09/30 02:18:59;;;;;;;16.25;6.10;;;15.20;99.90;;;;;;4246896;27;20055;-56
2023/09/30 02:21:01;;;;;;;13.35;5.93;;;15.30;99.90;;;;;;4248379;27;20480;-56
2023/09/30 02:23:06;;;;;;;18.67;6.60;;;15.30;99.90;;;;;;4248487;27;20125;-56
2023/09/30 02:25:09;;;;;;;14.60;5.73;;;15.20;99.90;;;;;;4248714;27;20100;-56
2023/09/30 02:27:12;;;;;;;25.88;6.63;;;15.20;99.90;;;;;;4248366;27;20099;-56
2023/09/30 02:29:14;;;;;;;17.73;6.07;;;15.20;99.90;;;;;;4248385;27;20166;-60
2023/09/30 02:31:17;;;;;;;14.10;5.47;;;15.10;99.90;;;;;;4248240;27;20055;-59
2023/09/30 02:33:19;;;;;;;13.55;5.88;;;15.20;99.90;;;;;;4229980;27;20042;-58
2023/09/30 02:35:22;;;;;;;14.63;5.43;;;15.20;99.90;;;;;;4248189;27;20126;-60
2023/09/30 02:37:25;;;;;;;16.00;5.97;;;15.10;99.90;;;;;;4248733;27;20035;-61
2023/09/30 02:39:29;;;;;;;15.13;5.38;;;15.10;99.90;;;;;;4231458;28;20082;-57
2023/09/30 02:41:31;;;;;;;14.10;5.25;;;15.10;99.90;;;;;;4248842;27;20400;-55
2023/09/30 02:43:35;;;;;;;15.48;6.35;;;15.20;99.90;;;;;;4248436;27;20054;-57
2023/09/30 02:45:37;;;;;;;23.85;6.18;;;15.20;99.90;;;;;;4248329;27;20039;-58
2023/09/30 02:47:39;;;;;;;14.77;5.97;;;15.10;99.90;;;;;;4247957;27;20041;-56
2023/09/30 02:49:42;;;;;;;12.70;5.50;;;15.10;99.90;;;;;;4248678;27;20382;-61
2023/09/30 02:51:44;;;;;;;16.88;5.82;;;15.10;99.90;;;;;;4248809;27;20094;-57
2023/09/30 02:53:48;;;;;;;14.00;5.32;;;15.10;99.90;;;;;;4248619;27;20126;-56
2023/09/30 02:55:55;;;;;;;13.95;6.40;;;15.10;99.90;;;;;;4247796;27;20039;-56
2023/09/30 02:57:58;;;;;;;14.98;6.35;;;15.10;99.90;;;;;;4241829;27;20107;-59
2023/09/30 03:00:11;;;;;;;12.82;6.43;;;15.20;99.90;;;;;;4247607;27;20096;-59
2023/09/30 03:02:15;;;;;;;11.20;5.10;;;15.20;99.80;;;;;;4247339;27;20043;-59
2023/09/30 03:04:19;;;;;;;17.52;5.35;;;15.20;99.80;;;;;;4247533;27;20043;-58
2023/09/30 03:06:21;;;;;;;15.02;5.82;;;15.20;99.40;;;;;;4247091;27;20100;-59
2023/09/30 03:08:25;;;;;;;18.17;5.55;;;15.10;99.40;;;;;;4247250;27;20126;-58
2023/09/30 03:10:27;;;;;;;14.80;6.22;;;15.10;99.70;;;;;;4247810;27;20096;-56
2023/09/30 03:12:29;;;;;;;15.18;5.97;;;15.00;99.50;;;;;;4247983;27;20051;-56
2023/09/30 03:14:31;;;;;;;17.42;5.78;;;15.00;99.90;;;;;;4247994;27;20046;-56
2023/09/30 03:16:38;;;;;;;16.05;5.78;;;15.00;99.80;;;;;;4247756;27;20039;-56
2023/09/30 03:18:40;;;;;;;14.18;5.70;;;15.00;99.90;;;;;;4247306;27;20043;-58
2023/09/30 03:20:43;;;;;;;12.57;5.32;;;15.00;99.90;;;;;;4246745;27;20047;-58
2023/09/30 03:22:48;;;;;;;16.13;5.68;;;15.00;99.90;;;;;;4247138;27;20047;-57
2023/09/30 03:24:50;;;;;;;;;;;15.00;99.90;;;;;;4248169;27;20500;-56
2023/09/30 03:26:52;;;;;;;14.57;5.97;;;15.00;99.90;;;;;;4247608;27;19920;-56
2023/09/30 03:28:54;;;;;;;15.80;5.50;;;14.90;99.90;;;;;;4228786;28;20519;-63
2023/09/30 03:30:56;;;;;;;12.90;4.70;;;14.90;99.90;;;;;;4247250;27;20138;-55
2023/09/30 03:33:01;;;;;;;10.32;4.72;;;15.00;99.90;;;;;;4228879;28;20044;-54
2023/09/30 03:35:05;;;;;;;16.58;5.25;;;14.90;99.90;;;;;;4247379;28;20428;-56
2023/09/30 03:37:07;;;;;;;12.85;5.28;;;14.90;99.90;;;;;;4247895;28;20069;-56
2023/09/30 03:39:14;;;;;;;14.70;6.15;;;14.90;99.90;;;;;;4247899;28;20122;-56
2023/09/30 03:41:19;;;;;;;12.82;5.20;;;14.90;99.90;;;;;;4247668;28;20099;-56
2023/09/30 03:43:25;;;;;;;16.45;5.20;;;15.00;99.90;;;;;;4247273;28;20073;-56
2023/09/30 03:45:27;;;;;;;10.70;4.95;;;14.90;99.90;;;;;;4243979;28;20070;-56
2023/09/30 03:47:31;;;;;;;12.68;5.25;;;14.90;99.90;;;;;;4247442;28;20043;-56
2023/09/30 03:49:35;;;;;;;11.23;4.63;;;14.90;99.90;;;;;;4246890;28;20042;-58
2023/09/30 03:51:37;;;;;;;15.32;5.13;;;14.80;99.90;;;;;;4246775;28;20051;-58
2023/09/30 03:53:40;;;;;;;19.45;5.53;;;14.80;99.90;;;;;;4246986;28;20412;-58
2023/09/30 03:55:42;;;;;;;13.80;5.13;;;14.80;99.90;;;;;;4246874;28;20154;-58
2023/09/30 03:57:47;;;;;;;15.85;5.72;;;14.70;99.90;;;;;;4247066;28;20047;-58
2023/09/30 03:59:50;;;;;;;12.50;5.15;;;14.70;99.90;;;;;;4246683;28;20043;-58
2023/09/30 04:01:53;;;;;;;15.45;5.55;;;14.80;99.90;;;;;;4246746;28;20402;-58
2023/09/30 04:03:56;;;;;;;14.38;4.75;;;14.70;99.90;;;;;;4246521;28;20401;-58
2023/09/30 04:06:04;;;;;;;13.68;4.63;;;14.70;99.90;;;;;;4228410;28;20058;-58
2023/09/30 04:08:07;;;;;;;13.82;5.45;;;14.70;99.90;;;;;;4247662;28;20043;-58
2023/09/30 04:10:10;;;;;;;13.27;5.22;;;14.60;99.90;;;;;;4247710;28;20047;-62
2023/09/30 04:12:12;;;;;;;13.48;5.35;;;14.60;99.90;;;;;;4247451;28;20069;-58
2023/09/30 04:14:17;;;;;;;14.82;5.40;;;14.50;99.90;;;;;;4247438;28;20068;-63
2023/09/30 04:16:19;;;;;;;15.38;5.60;;;14.50;99.90;;;;;;4246472;28;20113;-63
2023/09/30 04:18:23;;;;;;;12.30;5.20;;;14.50;99.90;;;;;;4247687;28;20092;-56
2023/09/30 04:20:26;;;;;;;11.57;5.03;;;14.50;99.90;;;;;;4247603;28;20063;-57
2023/09/30 04:22:32;;;;;;;13.15;5.60;;;14.50;99.90;;;;;;4247000;28;20515;-57
2023/09/30 04:24:35;;;;;;;13.52;5.45;;;14.40;99.90;;;;;;4246706;28;20047;-59
2023/09/30 04:26:37;;;;;;;14.13;5.30;;;14.40;99.90;;;;;;4245321;28;20046;-57
2023/09/30 04:28:40;;;;;;;17.23;5.53;;;14.40;99.90;;;;;;4246951;28;20067;-57
2023/09/30 04:30:42;;;;;;;10.50;4.85;;;14.40;99.90;;;;;;4247084;28;20040;-57
2023/09/30 04:32:44;;;;;;;16.25;5.82;;;14.40;99.90;;;;;;4247474;28;20047;-56
2023/09/30 04:34:46;;;;;;;13.45;4.82;;;14.40;99.90;;;;;;4230743;28;20048;-55
2023/09/30 04:36:49;;;;;;;14.57;5.80;;;14.50;99.90;;;;;;4228708;28;20059;-57
2023/09/30 04:38:52;;;;;;;15.35;5.75;;;14.50;99.90;;;;;;4246649;28;20548;-57
2023/09/30 04:40:54;;;;;;;15.20;6.03;;;14.50;99.90;;;;;;4248777;27;20072;-57
2023/09/30 04:42:58;;;;;;;14.63;5.38;;;14.50;99.90;;;;;;4250104;27;20050;-55
2023/09/30 04:45:01;;;;;;;19.35;6.13;;;14.60;99.90;;;;;;4249968;27;20050;-55
2023/09/30 04:47:04;;;;;;;13.95;5.93;;;14.60;99.90;;;;;;4231011;28;20048;-57
2023/09/30 04:49:07;;;;;;;16.17;5.80;;;14.60;99.90;;;;;;4248516;27;20417;-58
2023/09/30 04:51:10;;;;;;;13.85;5.15;;;14.60;99.90;;;;;;4249320;27;20055;-57
2023/09/30 04:53:13;;;;;;;16.30;5.97;;;14.60;99.90;;;;;;4249887;27;20039;-57
2023/09/30 04:55:16;;;;;;;15.45;5.35;;;14.60;99.90;;;;;;4249929;27;20400;-57
2023/09/30 04:57:19;;;;;;;14.07;5.78;;;14.60;99.90;;;;;;4249225;27;20039;-57
2023/09/30 04:59:24;;;;;;;17.67;6.32;;;14.70;99.90;;;;;;4249464;27;20092;-57
2023/09/30 05:01:28;;;;;;;;;;;14.70;99.90;;;;;;4249792;27;20097;-55
2023/09/30 05:03:30;;;;;;;16.13;5.32;;;14.70;99.90;;;;;;4249476;27;19919;-57
2023/09/30 05:05:32;;;;;;;14.18;5.10;;;14.60;99.90;;;;;;4249771;27;20126;-58
2023/09/30 05:07:35;;;;;;;15.63;5.30;;;14.60;99.90;;;;;;4249383;27;20043;-57
2023/09/30 05:09:38;;;;;;;15.10;5.65;;;14.50;99.90;;;;;;4249172;27;20094;-57
2023/09/30 05:11:41;;;;;;;13.30;5.22;;;14.50;99.90;;;;;;4249240;27;20553;-57
2023/09/30 05:13:43;;;;;;;17.35;5.90;;;14.50;99.90;;;;;;4249447;27;20405;-57
2023/09/30 05:15:46;;;;;;;11.93;5.32;;;14.50;99.90;;;;;;4249076;27;20192;-58
2023/09/30 05:17:49;;;;;;;20.02;6.35;;;14.60;99.90;;;;;;4248722;27;20647;-57
2023/09/30 05:19:51;;;;;;;17.75;5.70;;;14.60;99.90;;;;;;4249310;27;20055;-57
2023/09/30 05:21:53;;;;;;;15.95;6.55;;;14.60;99.90;;;;;;4249012;27;20073;-57
2023/09/30 05:23:56;;;;;;;22.17;7.18;;;14.60;99.90;;;;;;4249148;27;20530;-60
2023/09/30 05:25:58;;;;;;;12.25;5.50;;;14.60;99.90;;;;;;4249036;27;20054;-60
2023/09/30 05:28:04;;;;;;;16.55;6.53;;;14.50;99.90;;;;;;4248836;27;20118;-60
2023/09/30 05:30:10;;;;;;;13.95;6.22;;;14.50;99.90;;;;;;4249062;27;20051;-59
2023/09/30 05:32:15;;;;;;;16.90;7.07;;;14.50;99.90;;;;;;4248878;27;20511;-60
2023/09/30 05:34:17;;;;;;;19.70;6.43;;;14.50;99.90;;;;;;4248895;27;20159;-59
2023/09/30 05:36:20;;;;;;;16.33;6.60;;;14.40;99.90;;;;;;4249371;27;20098;-60
2023/09/30 05:38:23;;;;;;;13.88;6.00;;;14.40;99.90;;;;;;4248773;27;20489;-60
2023/09/30 05:40:26;;;;;;;12.93;5.63;;;14.30;99.90;;;;;;4249084;27;20043;-59
2023/09/30 05:42:31;;;;;;;24.10;7.45;;;14.40;99.90;;;;;;4248346;27;20050;-60
2023/09/30 05:44:36;;;;;;;13.10;6.25;;;14.30;99.90;;;;;;4248158;27;20046;-59
2023/09/30 05:46:38;;;;;;;;;;;14.30;99.90;;;;;;4249867;27;20100;-60
2023/09/30 05:48:40;;;;;;;18.55;7.20;;;14.30;99.90;;;;;;4248964;27;19923;-61
2023/09/30 05:50:44;;;;;;;12.93;5.28;;;14.20;99.90;;;;;;4249162;27;20051;-61
2023/09/30 05:52:46;;;;;;;17.90;5.90;;;14.20;99.90;;;;;;4248578;27;20044;-61
2023/09/30 05:54:49;;;;;;;12.50;4.97;;;14.30;99.90;;;;;;4230751;28;20543;-61
2023/09/30 05:56:52;;;;;;;10.85;4.88;;;14.30;99.90;;;;;;4240725;27;20054;-60
2023/09/30 05:58:54;;;;;;;16.27;5.68;;;14.30;99.90;;;;;;4248295;27;20054;-59
2023/09/30 06:01:00;;;;;;;16.77;5.95;;;14.30;99.90;;;;;;4248083;27;20065;-60
2023/09/30 06:03:06;;;;;;;11.60;5.15;;;14.20;99.90;;;;;;4248471;27;20143;-60
2023/09/30 06:05:09;;;;;;;17.20;6.50;;;14.20;99.90;;;;;;4245447;27;20043;-61
2023/09/30 06:07:11;;;;;;;12.05;5.13;;;14.20;99.90;;;;;;4249048;27;20066;-62
2023/09/30 06:09:13;;;;;;;16.35;5.25;;;14.10;99.90;;;;;;4248625;27;20130;-60
2023/09/30 06:11:19;;;;;;;14.95;5.35;;;14.20;99.90;;;;;;4248729;27;20078;-63
2023/09/30 06:13:21;;;;;;;12.90;5.35;;;14.20;99.90;;;;;;4248589;27;20069;-60
2023/09/30 06:15:25;;;;;;;21.92;5.82;;;14.20;99.90;;;;;;4246857;27;20181;-60
2023/09/30 06:17:31;;;;;;;14.65;5.47;;;14.20;99.90;;;;;;4249803;27;20043;-65
2023/09/30 06:19:33;;;;;;;;;;;14.30;99.90;;;;;;4250900;27;20491;-60
2023/09/30 06:21:39;;;;;;;13.95;4.72;;;14.40;99.90;;;;;;4248757;27;19925;-58
2023/09/30 06:23:43;;;;;;;15.27;5.28;;;14.40;99.90;;;;;;4248234;27;20043;-57
2023/09/30 06:25:45;;;;;;;15.70;5.75;;;14.40;99.90;;;;;;4244843;27;20043;-57
2023/09/30 06:27:48;;;;;;;14.43;5.95;;;14.40;99.90;;;;;;4248565;27;20043;-58
2023/09/30 06:29:50;;;;;;;13.95;5.43;;;14.40;99.90;;;;;;4247849;27;20759;-58
2023/09/30 06:31:52;;;;;;;19.20;5.93;;;14.40;99.90;;;;;;4247904;27;20071;-58
2023/09/30 06:33:58;;;;;;;18.00;5.25;;;14.30;99.90;;;;;;4248428;27;20055;-58
2023/09/30 06:36:02;;;;;;;18.52;5.15;;;14.40;99.90;;;;;;4247600;27;20076;-58
2023/09/30 06:38:06;;;;;;;17.63;6.10;;;14.40;99.90;;;;;;4230096;28;20063;-59
2023/09/30 06:40:11;;;;;;;17.08;6.55;;;14.50;99.90;;;;;;4247626;27;20045;-58
2023/09/30 06:42:13;;;;;;;17.65;6.07;;;14.50;99.90;;;;;;4248306;27;20087;-57
2023/09/30 06:44:16;;;;;;;18.52;5.63;;;14.60;99.90;;;;;;4247594;27;20470;-58
2023/09/30 06:46:18;;;;;;;26.17;6.65;;;14.70;99.90;;;;;;4247230;27;20115;-56
2023/09/30 06:48:21;;;;;;;22.27;7.10;;;14.60;99.90;;;;;;4229832;28;20048;-57
2023/09/30 06:50:24;;;;;;;23.73;6.13;;;14.70;99.90;;;;;;4248282;27;20055;-57
2023/09/30 06:52:27;;;;;;;23.80;6.93;;;14.80;99.90;;;;;;4250664;27;20438;-59
2023/09/30 06:54:30;;;;;;;15.27;6.03;;;14.80;99.90;;;;;;4251580;27;20137;-57
2023/09/30 06:56:33;;;;;;;20.67;7.18;;;14.80;99.90;;;;;;4248876;27;20046;-62
2023/09/30 06:58:35;;;;;;;13.10;5.93;;;14.80;99.70;;;;;;4230684;28;20054;-57
2023/09/30 07:00:37;;;;;;;17.58;6.38;;;14.80;99.90;;;;;;4219887;28;20039;-57
2023/09/30 07:02:40;;;;;;;19.65;6.78;;;14.80;99.80;;;;;;4238198;27;20088;-57
2023/09/30 07:04:43;;;;;;;17.88;6.53;;;14.80;99.90;;;;;;4247787;27;20059;-58
2023/09/30 07:06:47;;;;;;;22.70;7.15;;;14.80;99.90;;;;;;4247511;27;20408;-57
2023/09/30 07:08:49;;;;;;;17.67;6.93;;;14.80;99.90;;;;;;4247858;27;20099;-59
2023/09/30 07:10:52;;;;;;;20.02;6.30;;;14.80;99.90;;;;;;4247617;27;20408;-57
2023/09/30 07:12:55;;;;;;;22.63;6.38;;;14.90;99.70;;;;;;4247271;27;20087;-57
2023/09/30 07:14:58;;;;;;;27.13;8.00;;;15.00;99.70;;;;;;4247563;27;20043;-57
2023/09/30 07:17:00;;;;;;;21.67;6.38;;;15.00;99.60;;;;;;4247232;27;20465;-57
2023/09/30 07:19:03;;;;;;;15.25;6.03;;;15.10;99.70;;;;;;4247709;27;20097;-57
2023/09/30 07:21:05;;;;;;;23.52;7.07;;;15.20;99.50;;;;;;4247453;27;20039;-58
2023/09/30 07:23:09;;;;;;;17.92;6.40;;;15.20;99.30;;;;;;4247680;27;20039;-56
2023/09/30 07:25:20;;;;;;;16.55;6.65;;;15.30;99.30;;;;;;4247975;27;20051;-57
2023/09/30 07:27:22;;;;;;;25.45;6.78;;;15.40;99.00;;;;;;4246934;27;20047;-57
2023/09/30 07:29:29;;;;;;;20.02;6.15;;;15.30;99.00;;;;;;4247416;27;20467;-58
2023/09/30 07:31:35;;;;;;;18.50;6.38;;;15.40;99.10;;;;;;4247178;27;20138;-58
2023/09/30 07:33:37;;;;;;;21.95;6.80;;;15.50;99.00;;;;;;4247159;27;20136;-57
2023/09/30 07:35:39;;;;;;;21.42;7.28;;;15.50;98.50;;;;;;4229398;28;20070;-58
2023/09/30 07:37:42;;;;;;;18.48;6.40;;;15.40;98.50;;;;;;4247542;28;20043;-56
2023/09/30 07:39:45;;;;;;;22.23;6.72;;;15.50;98.60;;;;;;4247409;28;20458;-55
2023/09/30 07:41:48;;;;;;;26.38;7.45;;;15.60;98.70;;;;;;4246959;28;20146;-56
2023/09/30 07:43:50;;;;;;;20.85;7.18;;;15.70;98.60;;;;;;4247293;28;20546;-56
2023/09/30 07:45:52;;;;;;;21.58;6.70;;;15.70;98.30;;;;;;4247723;28;20051;-55
2023/09/30 07:47:54;;;;;;;22.30;7.50;;;15.70;98.60;;;;;;4247022;28;20047;-55
2023/09/30 07:49:56;;;;;;;25.83;7.65;;;15.80;98.40;;;;;;4247066;28;20039;-55
2023/09/30 07:51:59;;;;;;;21.33;6.63;;;15.80;98.30;;;;;;4247040;28;20070;-55
2023/09/30 07:54:01;;;;;;;23.80;7.25;;;15.90;98.40;;;;;;4247677;28;20051;-55
2023/09/30 07:56:24;;;;;;;18.23;6.80;;;15.90;98.50;;;;;;4247175;28;20049;-57
2023/09/30 07:58:27;;;;;;;18.67;7.20;;;16.00;98.10;;;;;;4248863;28;20039;-61
2023/09/30 08:00:29;;;;;;;23.83;7.32;;;16.10;98.30;;;;;;4249555;28;20096;-58
2023/09/30 08:02:33;;;;;;;22.00;7.15;;;16.00;98.10;;;;;;4247983;28;20051;-64
2023/09/30 08:04:36;;;;;;;20.27;6.17;;;16.10;98.50;;;;;;4247754;28;20528;-59
2023/09/30 08:06:39;;;;;;;21.70;6.80;;;16.20;98.60;;;;;;4228946;28;20471;-58
2023/09/30 08:08:41;;;;;;;22.38;7.28;;;16.20;98.10;;;;;;4247273;28;20431;-58
2023/09/30 08:10:44;;;;;;;22.73;6.57;;;16.30;98.10;;;;;;4246957;28;20043;-58
2023/09/30 08:12:49;;;;;;;20.48;7.05;;;16.30;98.20;;;;;;4229057;28;20047;-61
2023/09/30 08:14:52;;;;;;;27.65;7.60;;;16.40;98.20;;;;;;4242145;27;20051;-58
2023/09/30 08:16:55;;;;;;;22.52;7.97;;;16.50;98.10;;;;;;4245550;27;20082;-59
2023/09/30 08:18:57;;;;;;;27.05;7.60;;;16.50;98.00;;;;;;4247824;27;20043;-58
2023/09/30 08:21:00;;;;;;;25.52;7.05;;;16.50;98.10;;;;;;4233161;28;20046;-63
2023/09/30 08:23:03;;;;;;;21.33;7.45;;;16.50;97.90;;;;;;4238729;27;20397;-61
2023/09/30 08:25:06;;;;;;;23.58;8.60;;;16.60;98.00;;;;;;4250806;27;20039;-63
2023/09/30 08:27:08;;;;;;;26.95;8.63;;;16.50;97.90;;;;;;4251334;27;20043;-58
2023/09/30 08:29:12;;;;;;;23.08;7.63;;;16.50;98.00;;;;;;4251829;27;20051;-60
2023/09/30 08:31:14;;;;;;;21.48;7.13;;;16.60;97.90;;;;;;4251171;27;20119;-56
2023/09/30 08:33:16;;;;;;;29.98;8.60;;;16.60;97.90;;;;;;4250910;27;20074;-57
2023/09/30 08:35:19;;;;;;;21.85;7.85;;;16.70;97.70;;;;;;4250867;27;20054;-56
2023/09/30 08:37:21;;;;;;;21.83;7.57;;;16.80;97.80;;;;;;4250815;27;20043;-59
2023/09/30 08:39:24;;;;;;;21.27;7.60;;;16.80;97.60;;;;;;4250773;27;20062;-61
2023/09/30 08:41:32;;;;;;;27.60;7.57;;;16.80;97.60;;;;;;4251322;27;20042;-58
2023/09/30 08:43:38;;;;;;;34.65;7.53;;;16.80;97.60;;;;;;4250253;27;20393;-64
2023/09/30 08:45:47;;;;;;;21.95;7.40;;;16.90;97.70;;;;;;4250914;27;20039;-59
2023/09/30 08:47:52;;;;;;;20.08;8.32;;;16.90;97.60;;;;;;4250225;27;20404;-57
2023/09/30 08:49:57;;;;;;;23.65;7.25;;;16.90;97.80;;;;;;4249458;27;20103;-57
2023/09/30 08:52:01;;;;;;;23.80;7.47;;;16.80;97.50;;;;;;4250224;27;20117;-57
2023/09/30 08:54:05;;;;;;;28.85;8.05;;;17.00;97.60;;;;;;4249454;27;20042;-60
2023/09/30 08:56:10;;;;;;;22.33;7.53;;;17.00;97.30;;;;;;4249561;27;20074;-58
2023/09/30 08:58:13;;;;;;;17.55;7.40;;;17.10;97.40;;;;;;4249974;27;20043;-67
2023/09/30 09:00:16;;;;;;;28.40;8.32;;;17.20;97.20;;;;;;4252040;27;20039;-58
2023/09/30 09:02:19;;;;;;;24.35;9.25;;;17.30;97.20;;;;;;4251849;27;20050;-58
2023/09/30 09:04:21;;;;;;;18.75;7.50;;;17.30;97.10;;;;;;4249577;27;20075;-57
2023/09/30 09:06:25;;;;;;;24.48;8.80;;;17.30;97.00;;;;;;4248685;27;20050;-56
2023/09/30 09:08:27;;;;;;;30.92;8.70;;;17.30;97.00;;;;;;4249154;27;20468;-57
2023/09/30 09:10:29;;;;;;;29.58;8.63;;;17.30;97.60;;;;;;4249512;27;20043;-56
2023/09/30 09:12:34;;;;;;;25.50;8.18;;;17.30;97.70;;;;;;4249674;27;20047;-56
2023/09/30 09:14:37;;;;;;;24.50;8.55;;;17.40;97.80;;;;;;4245049;27;20043;-58
2023/09/30 09:16:52;;;;;;;21.33;8.52;;;17.50;97.60;;;;;;4240642;27;20043;-58
2023/09/30 09:18:56;;;;;;;25.50;8.55;;;17.60;97.50;;;;;;4244502;27;20035;-56
2023/09/30 09:21:10;;;;;;;25.73;8.27;;;17.70;97.10;;;;;;4245061;27;20043;-55
2023/09/30 09:23:15;;;;;;;24.05;8.43;;;17.60;97.10;;;;;;4244998;27;20162;-56
2023/09/30 09:25:17;;;;;;;22.83;8.15;;;17.70;97.20;;;;;;4230992;28;20096;-54
2023/09/30 09:27:22;;;;;;;27.42;8.13;;;17.80;97.40;;;;;;4249198;27;20069;-55
2023/09/30 09:29:26;;;;;;;31.10;7.80;;;18.00;96.60;;;;;;4248737;27;20054;-56
2023/09/30 09:31:31;;;;;;;28.98;8.00;;;18.00;96.90;;;;;;4246827;27;20039;-58
2023/09/30 09:33:37;;;;;;;31.98;8.68;;;18.20;96.70;;;;;;4244141;27;20118;-58
2023/09/30 09:35:41;;;;;;;26.23;8.23;;;18.20;96.20;;;;;;4248867;27;20039;-58
2023/09/30 09:37:53;;;;;;;21.55;7.82;;;18.40;96.40;;;;;;4248623;27;20043;-58
2023/09/30 09:39:57;;;;;;;23.83;7.53;;;18.40;95.70;;;;;;4232179;28;20048;-57
2023/09/30 09:42:01;;;;;;;23.00;8.43;;;18.50;95.80;;;;;;4231841;28;20063;-56
2023/09/30 09:44:06;;;;;;;29.60;7.87;;;18.40;95.10;;;;;;4249218;27;20050;-53
2023/09/30 09:46:09;;;;;;;24.58;7.00;;;18.50;95.80;;;;;;4248664;27;20459;-54
2023/09/30 09:48:11;;;;;;;25.65;8.23;;;18.50;95.40;;;;;;4248492;27;20485;-54
2023/09/30 09:50:14;;;;;;;25.75;7.22;;;18.60;95.00;;;;;;4237766;27;20055;-54
2023/09/30 09:52:19;;;;;;;20.38;7.38;;;18.60;95.10;;;;;;4246977;27;20051;-56
2023/09/30 09:54:22;;;;;;;28.67;7.93;;;18.70;95.20;;;;;;4248548;27;20067;-58
2023/09/30 09:56:25;;;;;;;24.17;7.30;;;18.80;95.20;;;;;;4241832;27;20516;-58
2023/09/30 09:58:31;;;;;;;21.00;7.00;;;18.90;94.80;;;;;;4248484;27;20035;-58
2023/09/30 10:00:35;;;;;;;25.85;7.05;;;18.90;94.80;;;;;;4248164;27;20047;-56
2023/09/30 10:02:40;;;;;;;22.55;7.13;;;19.00;94.70;;;;;;4248123;27;20085;-59
2023/09/30 10:04:43;;;;;;;;;;;19.00;94.70;;;;;;4248964;27;20047;-58
2023/09/30 10:06:51;;;;;;;24.83;6.93;;;19.00;94.50;;;;;;4247646;27;20006;-59
2023/09/30 10:08:57;;;;;;;23.00;7.38;;;19.00;95.10;;;;;;4248210;27;20130;-58
2023/09/30 10:11:01;;;;;;;46.13;7.82;;;19.10;94.70;;;;;;4248225;27;20051;-56
2023/09/30 10:13:03;;;;;;;23.48;6.97;;;19.20;94.80;;;;;;4248313;27;20685;-55
2023/09/30 10:15:42;;;;;;;26.05;7.32;;;19.30;94.70;;;;;;4248988;27;20444;-57
2023/09/30 10:17:59;;;;;;;26.38;7.45;;;19.40;94.50;;;;;;4242177;27;20047;-58
2023/09/30 10:20:09;;;;;;;23.88;6.93;;;19.40;94.20;;;;;;4247986;27;20469;-60
2023/09/30 10:22:22;;;;;;;33.20;7.93;;;19.40;94.50;;;;;;4244984;27;20040;-56
2023/09/30 10:24:31;;;;;;;19.88;7.07;;;19.30;94.00;;;;;;4250059;27;20043;-60
2023/09/30 10:26:33;;;;;;;18.13;7.55;;;19.30;94.30;;;;;;4237120;27;20078;-60
2023/09/30 10:28:44;;;;;;;22.13;7.30;;;19.30;94.20;;;;;;4250036;27;20039;-60
2023/09/30 10:31:24;;;;;;;22.20;6.75;;;19.40;94.30;;;;;;4246333;27;20142;-58
2023/09/30 10:33:27;;;;;;;16.73;6.28;;;19.50;94.30;;;;;;4243497;27;20096;-57
2023/09/30 10:35:46;;;;;;;21.75;7.00;;;19.50;94.30;;;;;;4246992;27;20051;-55
2023/09/30 10:37:48;;;;;;;22.15;6.53;;;19.70;94.10;;;;;;4246370;27;20123;-56